Time;durP1;ratioP1;P1;durP2;ratioP2;P2;SDS_P1;SDS_P2;PMS_P1;PMS_P2;Temp;Humidity;BMP_temperature;BMP_pressure;BME280_temperature;BME280_humidity;BME280_pressure;Samples;Min_cycle;Max_cycle;Signal;HPM_P1;HPM_P2
2024/02/12 00:02:49;;;;;;;0.60;0.60;;;9.20;99.90;;;;;;10462444;28;20201;-80
2024/02/12 00:07:52;;;;;;;0.60;0.60;;;9.20;99.90;;;;;;10462074;28;20594;-79
2024/02/12 00:12:55;;;;;;;0.60;0.60;;;9.20;99.90;;;;;;10469470;28;20199;-80
2024/02/12 00:17:59;;;;;;;0.50;0.50;;;9.20;99.90;;;;;;10461490;28;20697;-80
2024/02/12 00:23:03;;;;;;;0.60;0.60;;;9.10;99.90;;;;;;10463350;28;20224;-81
2024/02/12 00:28:07;;;;;;;0.50;0.50;;;9.20;99.90;;;;;;10460371;28;20270;-79
2024/02/12 00:33:09;;;;;;;0.50;0.50;;;9.30;99.90;;;;;;10461821;28;20201;-80
2024/02/12 00:38:13;;;;;;;0.60;0.60;;;9.30;99.90;;;;;;10461683;28;20749;-81
2024/02/12 00:43:15;;;;;;;0.50;0.50;;;9.40;99.90;;;;;;10461937;28;20201;-80
2024/02/12 00:48:18;;;;;;;0.50;0.50;;;9.40;99.90;;;;;;10462548;28;20286;-81
2024/02/12 00:53:22;;;;;;;0.60;0.60;;;9.40;99.90;;;;;;10462901;28;20197;-80
2024/02/12 00:58:24;;;;;;;0.50;0.50;;;9.40;99.90;;;;;;10461341;28;20686;-82
2024/02/12 01:03:28;;;;;;;0.47;0.47;;;9.30;99.90;;;;;;10460013;28;20263;-82
2024/02/12 01:08:32;;;;;;;0.50;0.50;;;9.30;99.90;;;;;;10457231;28;20519;-80
2024/02/12 01:13:35;;;;;;;0.50;0.50;;;9.30;99.90;;;;;;10468890;28;20201;-81
2024/02/12 01:18:39;;;;;;;0.50;0.50;;;9.20;99.90;;;;;;10451704;28;20221;-81
2024/02/12 01:23:43;;;;;;;0.50;0.50;;;9.10;99.90;;;;;;10461114;28;20205;-80
2024/02/12 01:28:46;;;;;;;0.60;0.60;;;9.10;99.90;;;;;;10467379;28;20213;-80
2024/02/12 01:33:48;;;;;;;0.40;0.40;;;9.10;99.90;;;;;;10470478;28;20197;-79
2024/02/12 01:38:52;;;;;;;0.53;0.53;;;9.10;99.90;;;;;;10490027;22;20248;-79
2024/02/12 01:43:54;;;;;;;0.50;0.50;;;9.10;99.90;;;;;;10470829;28;20194;-78
2024/02/12 01:48:57;;;;;;;0.60;0.60;;;9.10;99.90;;;;;;10470664;28;20227;-79
2024/02/12 01:54:01;;;;;;;0.60;0.60;;;9.10;99.90;;;;;;10462826;28;20205;-78
2024/02/12 01:59:06;;;;;;;0.50;0.50;;;9.20;99.90;;;;;;10459274;28;20615;-78
2024/02/12 02:04:08;;;;;;;0.50;0.50;;;9.20;99.90;;;;;;10462722;28;20224;-78
2024/02/12 02:09:12;;;;;;;0.50;0.50;;;9.20;99.90;;;;;;10476607;28;20785;-78
2024/02/12 02:14:14;;;;;;;0.70;0.70;;;9.30;99.90;;;;;;10474931;28;20208;-79
2024/02/12 02:19:17;;;;;;;0.50;0.50;;;9.20;99.90;;;;;;10473494;28;20221;-78
2024/02/12 02:24:20;;;;;;;0.50;0.50;;;9.30;99.90;;;;;;10458885;28;20209;-79
2024/02/12 02:29:23;;;;;;;0.50;0.50;;;9.40;99.90;;;;;;10460100;28;20229;-78
2024/02/12 02:34:25;;;;;;;0.50;0.50;;;9.40;99.90;;;;;;10464614;28;20209;-78
2024/02/12 02:39:29;;;;;;;0.47;0.47;;;9.40;99.90;;;;;;10439871;28;20259;-79
2024/02/12 02:44:32;;;;;;;0.60;0.60;;;9.40;99.90;;;;;;10446004;28;20693;-78
2024/02/12 02:49:34;;;;;;;0.50;0.50;;;9.40;99.90;;;;;;10450807;28;20229;-78
2024/02/12 02:54:38;;;;;;;0.60;0.60;;;9.40;99.90;;;;;;10444295;28;20193;-78
2024/02/12 02:59:42;;;;;;;0.60;0.60;;;9.40;99.90;;;;;;10455647;28;20259;-78
2024/02/12 03:04:44;;;;;;;0.53;0.53;;;9.40;99.90;;;;;;10458097;28;20209;-78
2024/02/12 03:09:48;;;;;;;0.53;0.53;;;9.40;99.90;;;;;;10453815;28;20221;-78
2024/02/12 03:14:50;;;;;;;0.50;0.50;;;9.40;99.90;;;;;;10448937;28;20267;-79
2024/02/12 03:19:52;;;;;;;0.60;0.60;;;9.50;99.90;;;;;;10455900;28;20267;-78
2024/02/12 03:25:00;;;;;;;0.70;0.70;;;9.50;99.90;;;;;;10457479;28;20201;-77
2024/02/12 03:30:05;;;;;;;0.60;0.60;;;9.50;99.90;;;;;;10457194;28;20221;-79
2024/02/12 03:35:08;;;;;;;0.60;0.60;;;9.50;99.90;;;;;;10453882;28;20201;-78
2024/02/12 03:40:16;;;;;;;0.60;0.60;;;9.60;99.90;;;;;;10455928;28;20232;-78
2024/02/12 03:45:19;;;;;;;0.57;0.57;;;9.60;99.90;;;;;;10446995;28;20198;-78
2024/02/12 04:01:02;;;;;;;0.60;0.60;;;9.50;99.90;;;;;;10460066;28;20216;-78
2024/02/12 04:06:06;;;;;;;0.60;0.60;;;9.50;99.90;;;;;;10459156;28;20194;-79
2024/02/12 04:11:10;;;;;;;1.00;1.00;;;9.50;99.90;;;;;;10456645;28;20229;-79
2024/02/12 04:16:14;;;;;;;0.80;0.80;;;9.50;99.90;;;;;;10454029;28;20205;-78
2024/02/12 04:21:20;;;;;;;0.90;0.90;;;9.50;99.90;;;;;;10459987;28;20616;-79
2024/02/12 04:26:24;;;;;;;1.00;1.00;;;9.50;99.90;;;;;;10447534;28;20209;-79
2024/02/12 04:31:27;;;;;;;1.20;1.20;;;9.50;99.90;;;;;;10461592;28;20221;-78
2024/02/12 04:36:31;;;;;;;1.00;1.00;;;9.50;99.90;;;;;;10450239;28;20212;-78
2024/02/12 04:41:39;;;;;;;1.10;1.10;;;9.40;99.90;;;;;;10467603;28;20229;-79
2024/02/12 04:46:42;;;;;;;1.20;1.20;;;9.40;99.90;;;;;;10464374;28;20193;-78
2024/02/12 04:51:44;;;;;;;1.10;1.10;;;9.40;99.90;;;;;;10463852;28;20225;-79
2024/02/12 04:56:49;;;;;;;0.97;0.97;;;9.30;99.90;;;;;;10468703;28;20196;-78
2024/02/12 05:01:52;;;;;;;0.70;0.70;;;9.30;99.90;;;;;;10470698;28;20213;-79
2024/02/12 05:06:54;;;;;;;0.97;0.97;;;9.30;99.90;;;;;;10460756;28;20197;-78
2024/02/12 05:11:58;;;;;;;0.90;0.90;;;9.30;99.90;;;;;;10452455;28;20228;-78
2024/02/12 05:17:03;;;;;;;0.90;0.90;;;9.20;99.90;;;;;;10457649;28;20189;-79
2024/02/12 05:27:27;;;;;;;0.90;0.90;;;9.10;99.90;;;;;;10456395;28;20197;-79
2024/02/12 05:32:29;;;;;;;0.70;0.70;;;9.10;99.90;;;;;;10447710;28;20225;-79
2024/02/12 05:37:33;;;;;;;0.50;0.50;;;9.10;99.90;;;;;;10464779;28;20201;-78
2024/02/12 05:42:37;;;;;;;0.90;0.90;;;9.10;99.90;;;;;;10450601;28;20217;-76
2024/02/12 05:47:40;;;;;;;0.60;0.60;;;9.20;99.90;;;;;;10449471;28;20343;-76
2024/02/12 05:52:42;;;;;;;0.43;0.43;;;9.20;99.90;;;;;;10442220;28;20631;-76
2024/02/12 05:57:46;;;;;;;0.70;0.70;;;9.30;99.90;;;;;;10446787;28;20213;-76
2024/02/12 06:02:48;;;;;;;0.67;0.67;;;9.40;99.90;;;;;;10449588;28;20247;-76
2024/02/12 06:07:52;;;;;;;0.70;0.70;;;9.40;99.90;;;;;;10454400;28;20263;-79
2024/02/12 06:12:57;;;;;;;1.00;1.00;;;9.50;99.90;;;;;;10455845;28;20221;-79
2024/02/12 06:17:59;;;;;;;0.90;0.90;;;9.50;99.90;;;;;;10462461;28;20213;-79
2024/02/12 06:23:02;;;;;;;0.70;0.70;;;9.50;99.90;;;;;;10463379;28;20189;-78
2024/02/12 06:28:06;;;;;;;0.80;0.80;;;9.50;99.90;;;;;;10463130;28;20213;-79
2024/02/12 06:33:08;;;;;;;0.90;0.90;;;9.50;99.90;;;;;;10463810;28;20229;-79
2024/02/12 06:38:11;;;;;;;0.67;0.67;;;9.50;99.90;;;;;;10455311;28;20232;-79
2024/02/12 06:43:15;;;;;;;0.83;0.83;;;9.50;99.90;;;;;;10454120;28;20228;-79
2024/02/12 06:48:17;;;;;;;0.90;0.90;;;9.50;99.90;;;;;;10463916;28;20209;-79
2024/02/12 06:53:19;;;;;;;1.10;1.10;;;9.50;99.90;;;;;;10443888;28;20224;-79
2024/02/12 06:58:24;;;;;;;0.90;0.90;;;9.50;99.90;;;;;;10456704;28;20718;-78
2024/02/12 07:03:28;;;;;;;0.63;0.63;;;9.50;99.90;;;;;;10456312;28;20197;-81
2024/02/12 07:08:30;;;;;;;1.00;1.00;;;9.30;99.90;;;;;;10447044;28;20228;-79
2024/02/12 07:13:34;;;;;;;0.77;0.77;;;9.30;99.90;;;;;;10439564;28;20720;-78
2024/02/12 07:18:37;;;;;;;0.73;0.73;;;9.20;99.90;;;;;;10454453;28;20653;-79
2024/02/12 07:23:39;;;;;;;0.90;0.90;;;9.20;99.90;;;;;;10456508;28;20201;-79
2024/02/12 07:28:43;;;;;;;1.10;1.10;;;9.20;99.90;;;;;;10456379;28;20229;-79
2024/02/12 07:33:45;;;;;;;0.70;0.70;;;9.30;99.90;;;;;;10456578;28;20283;-78
2024/02/12 07:38:48;;;;;;;0.70;0.70;;;9.40;99.90;;;;;;10469000;22;20601;-81
2024/02/12 07:43:51;;;;;;;1.00;1.00;;;9.40;99.90;;;;;;10473831;28;20189;-78
2024/02/12 07:48:54;;;;;;;0.83;0.83;;;9.40;99.90;;;;;;10472421;28;20702;-81
2024/02/12 07:53:56;;;;;;;0.90;0.90;;;9.50;99.90;;;;;;10452167;28;20213;-79
2024/02/12 07:59:00;;;;;;;0.80;0.80;;;9.60;99.90;;;;;;10452989;28;20267;-79
2024/02/12 08:04:03;;;;;;;0.70;0.70;;;9.60;99.90;;;;;;10442342;28;20667;-79
2024/02/12 08:09:07;;;;;;;0.70;0.70;;;9.70;99.90;;;;;;10444025;28;20730;-79
2024/02/12 08:14:11;;;;;;;0.70;0.70;;;9.70;99.90;;;;;;10445155;28;20217;-79
2024/02/12 08:19:14;;;;;;;0.70;0.70;;;9.70;99.90;;;;;;10452357;28;20213;-79
2024/02/12 08:24:17;;;;;;;0.70;0.70;;;9.70;99.90;;;;;;10445491;28;20201;-78
2024/02/12 08:29:20;;;;;;;0.70;0.70;;;9.80;99.90;;;;;;10453976;28;20405;-78
2024/02/12 08:34:23;;;;;;;0.50;0.50;;;9.90;99.90;;;;;;10449867;28;20220;-80
2024/02/12 08:39:25;;;;;;;0.50;0.50;;;10.00;99.90;;;;;;10450583;28;20240;-78
2024/02/12 08:44:31;;;;;;;0.50;0.50;;;10.10;99.90;;;;;;10450279;28;20200;-79
2024/02/12 08:49:34;;;;;;;0.50;0.50;;;10.10;99.90;;;;;;10447471;28;20236;-78
2024/02/12 08:54:37;;;;;;;0.43;0.43;;;10.20;99.90;;;;;;10424912;28;20295;-80
2024/02/12 08:59:43;;;;;;;0.50;0.50;;;10.20;99.90;;;;;;10452291;28;20264;-78
2024/02/12 09:04:46;;;;;;;0.60;0.60;;;10.30;99.90;;;;;;10451770;28;20201;-80
2024/02/12 09:09:49;;;;;;;0.30;0.30;;;10.30;99.90;;;;;;10453585;28;20221;-78
2024/02/12 09:14:53;;;;;;;0.20;0.20;;;10.40;99.90;;;;;;10455395;28;20221;-78
2024/02/12 09:19:55;;;;;;;0.60;0.60;;;10.40;99.90;;;;;;10450354;28;20647;-80
2024/02/12 09:24:58;;;;;;;0.50;0.50;;;10.50;99.90;;;;;;10448662;28;20210;-79
2024/02/12 09:30:06;;;;;;;0.50;0.50;;;10.60;99.90;;;;;;10448722;28;20275;-80
2024/02/12 09:35:08;;;;;;;0.40;0.40;;;10.70;99.90;;;;;;10448522;28;20302;-79
2024/02/12 09:40:12;;;;;;;0.50;0.50;;;10.80;99.90;;;;;;10442679;28;20225;-77
2024/02/12 09:45:17;;;;;;;0.40;0.40;;;10.90;99.90;;;;;;10450151;28;20793;-80
2024/02/12 09:50:20;;;;;;;0.40;0.40;;;11.00;99.90;;;;;;10447852;28;20264;-79
2024/02/12 09:55:23;;;;;;;0.50;0.50;;;11.00;99.90;;;;;;10461898;28;20536;-78
2024/02/12 10:00:27;;;;;;;0.50;0.50;;;11.10;99.90;;;;;;10450406;28;20218;-80
2024/02/12 10:05:31;;;;;;;0.40;0.40;;;11.20;99.90;;;;;;10448569;28;20205;-80
2024/02/12 10:10:34;;;;;;;0.50;0.50;;;11.30;99.90;;;;;;10450396;28;20233;-81
2024/02/12 10:15:39;;;;;;;0.40;0.40;;;11.40;99.90;;;;;;10440580;28;20217;-78
2024/02/12 10:20:41;;;;;;;0.30;0.30;;;11.50;99.90;;;;;;10452598;28;20225;-78
2024/02/12 10:25:45;;;;;;;0.40;0.40;;;11.50;99.90;;;;;;10432724;28;20471;-79
2024/02/12 10:30:49;;;;;;;0.30;0.30;;;11.60;99.90;;;;;;10430759;28;20229;-80
2024/02/12 10:35:53;;;;;;;0.50;0.50;;;11.60;99.90;;;;;;10438335;28;20201;-79
2024/02/12 10:41:04;;;;;;;0.50;0.50;;;11.60;99.90;;;;;;10437400;28;20730;-81
2024/02/12 10:46:08;;;;;;;0.40;0.40;;;11.70;99.90;;;;;;10436630;28;20198;-79
2024/02/12 10:51:11;;;;;;;0.40;0.40;;;11.70;99.90;;;;;;10436411;28;20689;-78
2024/02/12 10:56:14;;;;;;;0.33;0.33;;;11.70;99.50;;;;;;10435927;28;20213;-79
2024/02/12 11:01:18;;;;;;;0.30;0.30;;;11.70;99.30;;;;;;10423131;28;20217;-79
2024/02/12 11:06:21;;;;;;;0.40;0.40;;;11.70;99.50;;;;;;10425760;28;20643;-79
2024/02/12 11:11:28;;;;;;;0.30;0.30;;;11.70;99.30;;;;;;10424271;28;20709;-78
2024/02/12 11:16:33;;;;;;;0.33;0.33;;;11.70;99.20;;;;;;10426133;28;20201;-79
2024/02/12 11:21:35;;;;;;;0.40;0.40;;;11.80;99.60;;;;;;10421342;28;20286;-78
2024/02/12 11:26:40;;;;;;;0.30;0.30;;;11.90;99.60;;;;;;10428007;28;20206;-81
2024/02/12 11:31:47;;;;;;;0.40;0.40;;;11.80;99.60;;;;;;10429266;28;20218;-79
2024/02/12 11:36:58;;;;;;;0.53;0.53;;;11.70;99.20;;;;;;10420426;28;20205;-79
2024/02/12 11:42:00;;;;;;;0.30;0.30;;;11.70;98.60;;;;;;10427284;28;20221;-81
2024/02/12 11:47:04;;;;;;;0.30;0.30;;;11.70;98.40;;;;;;10422914;28;20188;-79
2024/02/12 11:52:07;;;;;;;0.30;0.30;;;11.60;98.10;;;;;;10424380;28;20222;-79
2024/02/12 11:57:11;;;;;;;0.40;0.40;;;11.50;97.70;;;;;;10418288;28;20202;-79
2024/02/12 12:02:15;;;;;;;0.30;0.30;;;11.40;98.20;;;;;;10422694;28;20222;-79
2024/02/12 12:07:17;;;;;;;0.40;0.40;;;11.40;98.60;;;;;;10420003;28;20264;-79
2024/02/12 12:12:25;;;;;;;0.30;0.30;;;11.40;98.80;;;;;;10423224;28;20237;-79
2024/02/12 12:17:28;;;;;;;0.20;0.20;;;11.40;98.90;;;;;;10422176;28;20213;-80
2024/02/12 12:22:31;;;;;;;0.40;0.40;;;11.30;98.60;;;;;;10410277;28;20296;-81
2024/02/12 12:27:33;;;;;;;0.30;0.30;;;11.40;99.00;;;;;;10415444;28;20213;-79
2024/02/12 12:32:37;;;;;;;0.30;0.30;;;11.40;99.00;;;;;;10425645;28;20213;-79
2024/02/12 12:37:40;;;;;;;0.30;0.30;;;11.50;99.00;;;;;;10416944;28;20194;-79
2024/02/12 12:42:42;;;;;;;0.30;0.30;;;11.50;99.50;;;;;;10419067;28;20197;-79
2024/02/12 12:47:48;;;;;;;0.30;0.30;;;11.50;99.90;;;;;;10416600;28;20667;-80
2024/02/12 12:52:50;;;;;;;0.33;0.33;;;11.50;99.90;;;;;;10421631;28;20221;-79
2024/02/12 12:57:53;;;;;;;0.30;0.30;;;11.30;99.90;;;;;;10418033;28;20194;-80
2024/02/12 13:02:57;;;;;;;0.40;0.40;;;11.10;99.90;;;;;;10427729;28;20197;-80
2024/02/12 13:07:59;;;;;;;0.50;0.50;;;11.00;99.90;;;;;;10425011;28;20237;-82
2024/02/12 13:13:02;;;;;;;0.40;0.40;;;10.90;99.90;;;;;;10433333;28;20232;-81
2024/02/12 13:18:06;;;;;;;0.50;0.50;;;10.90;99.90;;;;;;10448694;28;20217;-79
2024/02/12 13:23:09;;;;;;;0.50;0.50;;;10.90;99.90;;;;;;10450823;28;20197;-80
2024/02/12 13:28:11;;;;;;;0.60;0.60;;;10.90;99.90;;;;;;10451244;28;20268;-82
2024/02/12 13:33:15;;;;;;;0.40;0.40;;;11.00;99.90;;;;;;10451844;28;20228;-80
2024/02/12 13:38:20;;;;;;;0.73;0.73;;;11.10;99.90;;;;;;10471649;22;20221;-76
2024/02/12 13:43:23;;;;;;;0.30;0.30;;;11.10;99.90;;;;;;10478724;28;20205;-77
2024/02/12 13:48:27;;;;;;;0.30;0.30;;;11.20;99.90;;;;;;10483157;28;20226;-77
2024/02/12 13:53:29;;;;;;;0.10;0.10;;;11.20;99.90;;;;;;10396120;28;20695;-78
2024/02/12 13:58:32;;;;;;;0.17;0.17;;;11.10;99.90;;;;;;10409260;28;20295;-76
2024/02/12 14:03:36;;;;;;;0.30;0.30;;;11.10;99.90;;;;;;10405279;28;20194;-78
2024/02/12 14:08:40;;;;;;;0.10;0.10;;;11.20;99.90;;;;;;10402575;28;20210;-78
2024/02/12 14:13:43;;;;;;;0.30;0.30;;;11.30;99.90;;;;;;10403290;28;20260;-78
2024/02/12 14:18:47;;;;;;;0.40;0.40;;;11.30;99.90;;;;;;10411104;28;20226;-79
2024/02/12 14:23:49;;;;;;;0.30;0.30;;;11.40;99.90;;;;;;10398088;28;20961;-77
2024/02/12 14:28:52;;;;;;;0.40;0.40;;;11.40;99.10;;;;;;10402733;28;20222;-78
2024/02/12 14:33:55;;;;;;;0.40;0.40;;;11.40;99.30;;;;;;10388581;28;20648;-78
2024/02/12 14:38:58;;;;;;;0.30;0.30;;;11.40;99.90;;;;;;10402902;28;20582;-77
2024/02/12 14:44:02;;;;;;;0.60;0.60;;;11.50;99.70;;;;;;10401458;28;20190;-77
2024/02/12 14:49:06;;;;;;;0.50;0.50;;;11.50;99.00;;;;;;10403449;28;20213;-77
2024/02/12 14:54:08;;;;;;;0.63;0.63;;;11.40;99.10;;;;;;10403522;28;20229;-77
2024/02/12 14:59:11;;;;;;;0.50;0.50;;;11.40;99.00;;;;;;10403535;28;20229;-77
2024/02/12 15:04:15;;;;;;;0.50;0.50;;;11.40;98.70;;;;;;10403776;28;20194;-78
2024/02/12 15:09:24;;;;;;;0.60;0.60;;;11.30;98.80;;;;;;10403978;28;20287;-77
2024/02/12 15:14:27;;;;;;;0.60;0.60;;;11.30;98.90;;;;;;10399598;28;20707;-77
2024/02/12 15:19:30;;;;;;;0.80;0.80;;;11.20;99.40;;;;;;10404025;28;20272;-77
2024/02/12 15:24:33;;;;;;;0.60;0.60;;;11.20;99.20;;;;;;10387853;28;20202;-77
2024/02/12 15:29:37;;;;;;;0.30;0.30;;;11.20;99.10;;;;;;10404342;28;20229;-77
2024/02/12 15:34:42;;;;;;;0.40;0.40;;;11.20;99.30;;;;;;10403248;28;20229;-74
2024/02/12 15:39:44;;;;;;;0.60;0.60;;;11.10;98.80;;;;;;10386761;28;20649;-75
2024/02/12 15:44:48;;;;;;;0.30;0.30;;;11.10;98.20;;;;;;10391557;28;20232;-76
2024/02/12 15:49:54;;;;;;;0.50;0.50;;;11.10;97.80;;;;;;10397760;28;20229;-75
2024/02/12 15:54:56;;;;;;;0.50;0.50;;;11.00;98.40;;;;;;10392046;28;20226;-75
2024/02/12 15:59:58;;;;;;;0.60;0.60;;;11.00;97.80;;;;;;10396697;28;20652;-74
2024/02/12 16:05:04;;;;;;;0.70;0.70;;;11.00;98.30;;;;;;10381068;28;20321;-76
2024/02/12 16:10:09;;;;;;;0.60;0.60;;;10.90;98.60;;;;;;10404101;28;20695;-75
2024/02/12 16:15:12;;;;;;;0.53;0.53;;;10.90;98.40;;;;;;10398079;28;20648;-75
2024/02/12 16:20:18;;;;;;;0.50;0.50;;;10.80;98.10;;;;;;10397531;28;20222;-75
2024/02/12 16:25:20;;;;;;;0.60;0.60;;;10.80;98.40;;;;;;10395441;28;20260;-77
2024/02/12 16:30:23;;;;;;;0.50;0.50;;;10.70;98.40;;;;;;10385767;28;20222;-74
2024/02/12 16:35:27;;;;;;;0.37;0.37;;;10.70;98.00;;;;;;10394160;28;20288;-76
2024/02/12 16:40:30;;;;;;;0.63;0.63;;;10.60;98.10;;;;;;10412671;28;20232;-75
2024/02/12 16:45:33;;;;;;;0.50;0.50;;;10.60;98.20;;;;;;10382940;28;20210;-74
2024/02/12 16:50:37;;;;;;;0.50;0.50;;;10.50;98.30;;;;;;10390142;28;20750;-77
2024/02/12 16:55:40;;;;;;;0.60;0.60;;;10.40;98.50;;;;;;10398404;28;20225;-75
2024/02/12 17:00:42;;;;;;;0.60;0.60;;;10.30;98.60;;;;;;10402580;28;20225;-75
2024/02/12 17:05:46;;;;;;;0.40;0.40;;;10.30;98.70;;;;;;10396802;28;20249;-78
2024/02/12 17:10:49;;;;;;;0.50;0.50;;;10.20;98.50;;;;;;10396404;28;20214;-76
2024/02/12 17:15:51;;;;;;;0.50;0.50;;;10.20;98.10;;;;;;10397913;28;20690;-78
2024/02/12 17:20:55;;;;;;;0.60;0.60;;;10.20;98.20;;;;;;10402033;28;20271;-75
2024/02/12 17:25:57;;;;;;;0.60;0.60;;;10.20;97.80;;;;;;10403280;28;20263;-76
2024/02/12 17:31:01;;;;;;;0.60;0.60;;;10.10;98.40;;;;;;10404401;28;20218;-73
2024/02/12 17:36:05;;;;;;;0.60;0.60;;;10.10;98.60;;;;;;10398156;28;20280;-77
2024/02/12 17:41:07;;;;;;;0.50;0.50;;;10.10;98.60;;;;;;10402639;28;20230;-74
2024/02/12 17:46:11;;;;;;;0.50;0.50;;;10.20;98.40;;;;;;10395657;28;20574;-74
2024/02/12 17:51:15;;;;;;;0.50;0.50;;;10.10;98.60;;;;;;10407288;28;20577;-74
2024/02/12 17:56:18;;;;;;;0.50;0.50;;;10.10;99.10;;;;;;10407071;28;20287;-75
2024/02/12 18:01:21;;;;;;;0.70;0.70;;;10.10;98.80;;;;;;10407358;28;20721;-73
2024/02/12 18:06:25;;;;;;;0.70;0.70;;;10.00;98.80;;;;;;10407419;28;20244;-74
2024/02/12 18:11:28;;;;;;;0.50;0.50;;;9.90;99.40;;;;;;10404222;28;20223;-75
2024/02/12 18:16:31;;;;;;;0.60;0.60;;;9.90;99.50;;;;;;10394101;28;20695;-74
2024/02/12 18:21:35;;;;;;;0.80;0.80;;;9.80;99.80;;;;;;10410345;28;20284;-73
2024/02/12 18:26:37;;;;;;;0.50;0.50;;;9.80;99.90;;;;;;10406697;28;20209;-75
2024/02/12 18:31:40;;;;;;;0.70;0.70;;;9.80;99.90;;;;;;10407857;28;20225;-75
2024/02/12 18:36:44;;;;;;;0.70;0.70;;;9.80;99.90;;;;;;10401257;28;20221;-72
2024/02/12 18:41:46;;;;;;;0.60;0.60;;;9.80;99.90;;;;;;10399858;28;20253;-75
2024/02/12 18:46:49;;;;;;;0.80;0.80;;;9.80;99.90;;;;;;10407064;28;20252;-75
2024/02/12 18:51:53;;;;;;;0.70;0.70;;;9.80;99.90;;;;;;10408327;28;20808;-74
2024/02/12 18:56:55;;;;;;;0.60;0.60;;;9.70;99.90;;;;;;10408151;28;20225;-76
2024/02/12 19:01:58;;;;;;;0.57;0.57;;;9.70;99.50;;;;;;10407063;28;20237;-75
2024/02/12 19:07:03;;;;;;;0.60;0.60;;;9.70;99.80;;;;;;10408606;28;20465;-75
2024/02/12 19:12:06;;;;;;;0.50;0.50;;;9.70;99.80;;;;;;10401500;28;20225;-75
2024/02/12 19:17:10;;;;;;;0.60;0.60;;;9.60;99.90;;;;;;10408236;28;20236;-74
2024/02/12 19:22:14;;;;;;;0.60;0.60;;;9.60;99.90;;;;;;10409060;28;20226;-76
2024/02/12 19:27:16;;;;;;;0.60;0.60;;;9.50;99.90;;;;;;10401449;28;20255;-75
2024/02/12 19:32:19;;;;;;;0.70;0.70;;;9.50;99.90;;;;;;10402452;28;20225;-76
2024/02/12 19:37:23;;;;;;;0.60;0.60;;;9.50;99.90;;;;;;10399833;28;20217;-77
2024/02/12 19:42:26;;;;;;;0.80;0.80;;;9.60;99.90;;;;;;10450197;22;20328;-82
2024/02/12 19:47:28;;;;;;;0.80;0.80;;;9.60;99.90;;;;;;10466350;28;20197;-80
2024/02/12 19:52:32;;;;;;;0.70;0.70;;;9.60;99.90;;;;;;10445753;28;20707;-82
2024/02/12 19:57:34;;;;;;;0.60;0.60;;;9.60;99.90;;;;;;10412973;28;20252;-82
2024/02/12 20:02:37;;;;;;;0.50;0.50;;;9.60;99.90;;;;;;10413185;28;20229;-82
2024/02/12 20:07:41;;;;;;;0.60;0.60;;;9.60;99.90;;;;;;10413854;28;20224;-81
2024/02/12 20:12:43;;;;;;;0.60;0.60;;;9.70;99.90;;;;;;10423859;28;20217;-81
2024/02/12 20:17:46;;;;;;;0.50;0.50;;;9.70;99.90;;;;;;10426855;28;20229;-83
2024/02/12 20:22:50;;;;;;;0.60;0.60;;;9.70;99.70;;;;;;10421850;28;20264;-83
2024/02/12 20:27:52;;;;;;;0.60;0.60;;;9.70;99.90;;;;;;10421676;28;20690;-84
2024/02/12 20:32:54;;;;;;;0.50;0.50;;;9.70;99.90;;;;;;10433697;28;20210;-82
2024/02/12 20:38:00;;;;;;;0.50;0.50;;;9.70;99.90;;;;;;10423614;28;20287;-81
2024/02/12 20:43:02;;;;;;;0.40;0.40;;;9.70;99.90;;;;;;10421122;28;20238;-81
2024/02/12 20:48:05;;;;;;;0.60;0.60;;;9.70;99.90;;;;;;10421302;28;20201;-80
2024/02/12 20:53:09;;;;;;;0.50;0.50;;;9.70;99.90;;;;;;10421331;28;20700;-80
2024/02/12 20:58:12;;;;;;;0.40;0.40;;;9.70;99.90;;;;;;10409707;28;20221;-79
2024/02/12 21:03:14;;;;;;;0.50;0.50;;;9.60;99.90;;;;;;10412393;28;20225;-83
2024/02/12 21:08:18;;;;;;;0.47;0.47;;;9.60;99.90;;;;;;10422048;28;20193;-81
2024/02/12 21:13:20;;;;;;;0.40;0.40;;;9.50;99.90;;;;;;10435885;28;20217;-80
2024/02/12 21:18:23;;;;;;;0.50;0.50;;;9.50;99.90;;;;;;10423831;28;20225;-81
2024/02/12 21:23:28;;;;;;;0.60;0.60;;;9.50;99.90;;;;;;10424103;28;20228;-81
2024/02/12 21:28:30;;;;;;;0.50;0.50;;;9.50;99.90;;;;;;10418177;28;20232;-82
2024/02/12 21:33:34;;;;;;;0.30;0.30;;;9.50;99.90;;;;;;10428034;28;20221;-83
2024/02/12 21:38:40;;;;;;;0.50;0.50;;;9.40;99.90;;;;;;10426524;28;20222;-81
2024/02/12 21:43:43;;;;;;;0.40;0.40;;;9.50;99.90;;;;;;10426163;28;20607;-81
2024/02/12 21:48:46;;;;;;;0.30;0.30;;;9.50;99.90;;;;;;10431608;28;20259;-79
2024/02/12 21:53:50;;;;;;;0.40;0.40;;;9.50;99.90;;;;;;10434382;28;20263;-79
2024/02/12 21:58:52;;;;;;;0.40;0.40;;;9.50;99.90;;;;;;10433606;28;20221;-80
2024/02/12 22:03:55;;;;;;;0.40;0.40;;;9.50;99.90;;;;;;10439377;28;20221;-78
2024/02/12 22:08:59;;;;;;;0.37;0.37;;;9.50;99.90;;;;;;10429642;28;20209;-81
2024/02/12 22:14:01;;;;;;;0.30;0.30;;;9.60;99.90;;;;;;10421681;28;20226;-80
2024/02/12 22:19:04;;;;;;;0.53;0.53;;;9.60;99.90;;;;;;10419320;28;20291;-83
2024/02/12 22:24:08;;;;;;;0.40;0.40;;;9.60;99.90;;;;;;10421681;28;20229;-80
2024/02/12 22:29:11;;;;;;;0.47;0.47;;;9.60;99.90;;;;;;10418973;28;20205;-81
2024/02/12 22:34:14;;;;;;;0.50;0.50;;;9.60;99.90;;;;;;10417821;28;20249;-81
2024/02/12 22:39:18;;;;;;;0.60;0.60;;;9.60;99.90;;;;;;10427974;28;20194;-80
2024/02/12 22:44:20;;;;;;;0.40;0.40;;;9.60;99.90;;;;;;10422424;28;20222;-82
2024/02/12 22:49:22;;;;;;;0.40;0.40;;;9.50;99.90;;;;;;10414224;28;20230;-79
2024/02/12 22:54:26;;;;;;;0.40;0.40;;;9.50;99.90;;;;;;10423151;28;20647;-82
2024/02/12 22:59:28;;;;;;;0.50;0.50;;;9.40;99.90;;;;;;10421411;28;20244;-80
2024/02/12 23:04:31;;;;;;;0.40;0.40;;;9.30;99.90;;;;;;10402480;28;20280;-79
2024/02/12 23:09:35;;;;;;;0.60;0.60;;;9.30;99.90;;;;;;10413440;28;20217;-79
2024/02/12 23:14:37;;;;;;;0.50;0.50;;;9.20;99.90;;;;;;10420627;28;20287;-81
2024/02/12 23:19:40;;;;;;;0.50;0.50;;;9.20;99.90;;;;;;10414272;28;20206;-80
2024/02/12 23:24:44;;;;;;;0.60;0.60;;;9.10;99.90;;;;;;10412730;28;20237;-81
2024/02/12 23:29:46;;;;;;;0.50;0.50;;;9.10;99.90;;;;;;10411682;28;20206;-82
2024/02/12 23:34:49;;;;;;;0.60;0.60;;;9.00;99.90;;;;;;10411135;28;20217;-80
2024/02/12 23:39:52;;;;;;;0.50;0.50;;;8.90;99.90;;;;;;10409853;28;20668;-80
2024/02/12 23:44:55;;;;;;;0.60;0.60;;;8.90;99.90;;;;;;10414996;28;20222;-80
2024/02/12 23:49:57;;;;;;;0.50;0.50;;;8.80;99.90;;;;;;10410642;28;20194;-80
2024/02/12 23:55:01;;;;;;;0.47;0.47;;;8.80;99.90;;;;;;10409960;28;20214;-79
